Muirhead, United Kingdom
Current Conditions -  °F | °C
As of 8:20 PM on Sunday 23 Nov 2014 (Local Time) from EGPN Reporting Station
Clear Clear  
Wind Chill: 35°   Ceiling: Unl
Heat Index: 41°   Visibility: 6mi
Dew Point: 39°   Wind: 9mph
Humidity: 93%   Direction: 240°WSW
Pressure: 29.97"   Gusts: NA
Location:  56.5°N, 3.07°W
Report Text: EGPN 232020Z 24008KT CAVOK 05/04 Q1015
Loading
Personal Weather Stations






























Interactive Weather Map New forecast layout! Learn more

10-Day Weather Forecast

Advertisements
Track Severe Weather on mobile